Time;durP1;ratioP1;P1;durP2;ratioP2;P2;SDS_P1;SDS_P2;PMS_P1;PMS_P2;Temp;Humidity;BMP_temperature;BMP_pressure;BME280_temperature;BME280_humidity;BME280_pressure;Samples;Min_cycle;Max_cycle;Signal;HPM_P1;HPM_P2
2022/08/30 00:01:12;;;;;;;6.57;3.53;;;;;;;16.18;85.83;102236.34;5084111;28;20112;-80
2022/08/30 00:03:19;;;;;;;9.98;3.55;;;;;;;16.15;86.00;102234.84;5075326;28;20139;-80
2022/08/30 00:05:44;;;;;;;5.70;3.43;;;;;;;16.16;85.62;102221.88;5081595;28;20028;-80
2022/08/30 00:08:10;;;;;;;10.20;3.50;;;;;;;16.08;86.16;102227.53;5066898;28;20067;-79
2022/08/30 00:10:37;;;;;;;7.90;3.58;;;;;;;16.15;85.93;102226.53;5070966;28;20036;-80
2022/08/30 00:13:05;;;;;;;8.98;3.28;;;;;;;16.14;86.08;102232.28;5085253;28;20062;-79
2022/08/30 00:15:31;;;;;;;8.02;3.30;;;;;;;16.10;86.26;102234.59;5072978;28;20020;-79
2022/08/30 00:17:56;;;;;;;11.55;3.88;;;;;;;16.03;86.13;102224.53;5087518;28;20199;-79
2022/08/30 00:20:26;;;;;;;18.97;3.03;;;;;;;15.98;86.58;102238.94;5067380;28;20466;-80
2022/08/30 00:22:51;;;;;;;7.97;3.42;;;;;;;15.97;86.54;102225.31;5070185;28;20499;-80
2022/08/30 00:25:18;;;;;;;11.07;3.80;;;;;;;15.92;87.04;102223.16;5071320;28;20036;-79
2022/08/30 00:27:44;;;;;;;14.63;3.85;;;;;;;15.87;86.86;102225.66;5086194;28;20024;-79
2022/08/30 00:30:11;;;;;;;9.75;4.00;;;;;;;15.96;86.74;102229.97;5087858;28;20044;-79
2022/08/30 00:32:37;;;;;;;6.30;3.60;;;;;;;15.91;86.51;102226.94;5088371;28;20028;-79
2022/08/30 00:35:04;;;;;;;6.07;3.60;;;;;;;15.91;87.04;102234.41;5081665;28;20082;-79
2022/08/30 00:37:29;;;;;;;6.93;3.55;;;;;;;15.90;87.05;102224.41;5088421;28;20031;-79
2022/08/30 00:39:55;;;;;;;6.53;3.67;;;;;;;15.90;87.09;102221.66;5066859;28;20024;-79
2022/08/30 00:42:21;;;;;;;8.17;3.80;;;;;;;15.88;87.20;102234.78;5066801;28;20025;-79
2022/08/30 00:44:47;;;;;;;11.97;4.17;;;;;;;15.81;87.54;102231.97;5067322;28;20127;-80
2022/08/30 00:47:15;;;;;;;7.75;3.28;;;;;;;15.77;86.96;102222.38;5052850;28;20071;-80
2022/08/30 00:49:44;;;;;;;5.53;3.17;;;;;;;15.76;87.59;102231.72;5069086;28;20031;-79
2022/08/30 00:52:11;;;;;;;9.20;4.35;;;;;;;15.71;87.94;102238.88;5084121;28;20024;-79
2022/08/30 00:54:40;;;;;;;10.57;3.53;;;;;;;15.73;87.95;102242.28;5069892;28;20024;-79
2022/08/30 00:57:08;;;;;;;16.70;3.97;;;;;;;15.68;87.77;102228.22;5070562;28;20040;-80
2022/08/30 00:59:34;;;;;;;12.68;4.32;;;;;;;15.67;88.02;102237.53;5072824;28;20545;-79
2022/08/30 01:02:01;;;;;;;7.23;4.27;;;;;;;15.66;88.10;102233.09;5069553;28;20028;-78
2022/08/30 01:04:28;;;;;;;9.07;3.53;;;;;;;15.65;88.25;102226.72;5069884;28;20032;-77
2022/08/30 01:06:55;;;;;;;8.98;4.13;;;;;;;15.68;88.31;102236.53;5087960;28;20520;-79
2022/08/30 01:09:21;;;;;;;7.82;4.13;;;;;;;15.69;88.31;102235.47;5080764;28;20217;-76
2022/08/30 01:11:47;;;;;;;10.13;4.35;;;;;;;15.60;88.22;102231.97;5086488;28;20225;-77
2022/08/30 01:14:16;;;;;;;6.80;4.07;;;;;;;15.56;88.39;102238.06;5088239;28;20126;-77
2022/08/30 01:16:43;;;;;;;11.45;3.63;;;;;;;15.58;88.69;102233.22;5069115;28;20050;-76
2022/08/30 01:19:38;;;;;;;11.68;4.18;;;;;;;15.61;88.53;102241.09;5086572;28;20040;-76
2022/08/30 01:22:20;;;;;;;11.65;3.85;;;;;;;15.56;88.27;102243.59;5055153;28;20475;-77
2022/08/30 01:24:49;;;;;;;10.85;4.30;;;;;;;15.54;88.70;102243.78;5087157;28;20024;-77
2022/08/30 01:27:16;;;;;;;8.60;3.53;;;;;;;15.47;88.74;102244.78;5069879;28;20039;-76
2022/08/30 01:29:43;;;;;;;10.95;4.18;;;;;;;15.49;88.75;102248.19;5080274;28;20036;-78
2022/08/30 01:32:22;;;;;;;6.35;3.90;;;;;;;15.52;88.67;102242.28;5068447;28;20043;-77
2022/08/30 01:34:47;;;;;;;9.25;4.38;;;;;;;15.47;88.73;102242.03;5068842;28;20045;-78
2022/08/30 01:37:26;;;;;;;5.37;4.00;;;;;;;15.42;88.77;102239.00;5087182;28;20031;-77
2022/08/30 01:39:52;;;;;;;11.05;3.90;;;;;;;15.46;89.18;102241.16;5088730;28;20490;-76
2022/08/30 01:42:20;;;;;;;14.70;4.55;;;;;;;15.42;89.26;102233.47;5091158;28;20605;-76
2022/08/30 01:44:45;;;;;;;6.95;4.22;;;;;;;15.43;89.09;102240.69;5088726;28;20036;-78
2022/08/30 01:47:12;;;;;;;11.17;4.30;;;;;;;15.40;89.46;102239.19;5088541;28;20020;-79
2022/08/30 01:49:38;;;;;;;11.32;4.10;;;;;;;15.35;89.50;102227.84;5072611;28;20424;-78
2022/08/30 01:52:05;;;;;;;13.30;5.50;;;;;;;15.33;89.47;102234.63;5072530;28;20040;-78
2022/08/30 01:54:33;;;;;;;9.90;4.57;;;;;;;15.30;89.61;102240.50;5072508;28;20368;-79
2022/08/30 01:56:58;;;;;;;7.72;4.00;;;;;;;15.39;89.52;102231.94;5089110;28;20210;-78
2022/08/30 01:59:24;;;;;;;7.87;5.30;;;;;;;15.37;89.84;102227.66;5088210;28;20107;-79
2022/08/30 02:01:49;;;;;;;10.87;4.50;;;;;;;15.32;89.61;102238.41;5090044;28;20248;-78
2022/08/30 02:04:15;;;;;;;9.27;4.60;;;;;;;15.29;89.77;102230.50;5090857;28;20427;-78
2022/08/30 02:06:43;;;;;;;7.27;3.50;;;;;;;15.29;89.73;102236.88;5072322;28;20024;-77
2022/08/30 02:09:08;;;;;;;7.20;4.47;;;;;;;15.33;89.75;102234.63;5070880;28;20391;-76
2022/08/30 02:11:33;;;;;;;9.30;4.37;;;;;;;15.29;89.78;102239.66;5071169;28;20177;-77
2022/08/30 02:13:59;;;;;;;10.53;4.90;;;;;;;15.33;90.32;102246.53;5090436;28;20092;-77
2022/08/30 02:16:25;;;;;;;5.47;3.90;;;;;;;15.33;89.95;102237.38;5068790;28;20024;-76
2022/08/30 02:18:52;;;;;;;6.97;4.65;;;;;;;15.32;89.76;102244.78;5081310;28;20028;-77
2022/08/30 02:21:18;;;;;;;8.30;4.47;;;;;;;15.37;89.98;102242.31;5081169;28;20063;-77
2022/08/30 02:23:44;;;;;;;15.65;5.10;;;;;;;15.38;89.66;102232.97;5089056;28;20114;-77
2022/08/30 02:26:11;;;;;;;7.97;4.40;;;;;;;15.36;90.05;102235.09;5070515;28;20530;-79
2022/08/30 02:28:37;;;;;;;9.50;4.55;;;;;;;15.41;89.50;102226.22;5087061;28;20036;-78
2022/08/30 02:31:03;;;;;;;8.47;4.70;;;;;;;15.41;89.70;102229.84;5087381;28;20119;-77
2022/08/30 02:33:28;;;;;;;9.47;4.57;;;;;;;15.44;89.61;102237.75;5072047;28;20085;-77
2022/08/30 02:35:54;;;;;;;8.00;4.30;;;;;;;15.38;89.69;102237.66;5089956;28;20032;-77
2022/08/30 02:38:20;;;;;;;8.93;5.20;;;;;;;15.43;89.83;102230.47;5054797;28;20508;-78
2022/08/30 02:40:45;;;;;;;6.47;4.50;;;;;;;15.34;89.76;102234.44;5089621;28;20061;-77
2022/08/30 02:43:11;;;;;;;7.90;5.00;;;;;;;15.36;89.99;102234.25;5089070;28;20063;-77
2022/08/30 02:45:37;;;;;;;5.73;4.43;;;;;;;15.30;90.72;102229.44;5071034;28;20172;-77
2022/08/30 02:48:03;;;;;;;6.10;4.57;;;;;;;15.31;90.48;102220.13;5071380;28;20119;-78
2022/08/30 02:50:29;;;;;;;13.30;5.63;;;;;;;15.35;90.15;102232.50;5068619;28;20055;-78
2022/08/30 02:52:55;;;;;;;6.80;4.82;;;;;;;15.33;90.12;102229.09;5088357;28;20107;-78
2022/08/30 02:55:22;;;;;;;8.93;5.13;;;;;;;15.29;90.41;102228.59;5071338;28;20123;-77
2022/08/30 02:57:47;;;;;;;9.30;5.20;;;;;;;15.32;90.35;102222.69;5088490;28;20107;-77
2022/08/30 03:00:16;;;;;;;11.27;4.90;;;;;;;15.33;89.87;102223.56;5065863;28;20027;-77
2022/08/30 03:02:41;;;;;;;14.63;5.95;;;;;;;15.31;90.95;102214.63;5088977;28;20031;-77
2022/08/30 03:05:11;;;;;;;10.60;6.63;;;;;;;15.34;90.58;102205.97;5054996;28;20118;-77
2022/08/30 03:07:37;;;;;;;13.85;5.72;;;;;;;15.35;90.77;102203.00;5071222;28;20047;-77
2022/08/30 03:10:04;;;;;;;11.03;7.10;;;;;;;15.37;90.20;102197.28;5067149;28;20027;-77
2022/08/30 03:12:32;;;;;;;10.07;5.18;;;;;;;15.43;90.45;102204.78;5078474;28;20024;-77
2022/08/30 03:14:57;;;;;;;11.10;5.68;;;;;;;15.36;90.13;102201.13;5066188;28;20028;-77
2022/08/30 03:17:23;;;;;;;9.43;6.33;;;;;;;15.29;90.56;102201.00;5087707;28;20127;-75
2022/08/30 03:19:48;;;;;;;7.97;5.80;;;;;;;15.34;90.64;102203.19;5088620;28;20055;-77
2022/08/30 03:22:14;;;;;;;8.20;5.57;;;;;;;15.31;90.87;102198.03;5068402;28;20028;-77
2022/08/30 03:24:39;;;;;;;12.17;6.70;;;;;;;15.30;91.09;102202.69;5069334;28;20031;-78
2022/08/30 03:27:06;;;;;;;9.23;5.90;;;;;;;15.32;90.62;102202.50;5087421;28;20031;-76
2022/08/30 03:29:33;;;;;;;9.63;6.75;;;;;;;15.29;91.03;102198.25;5088905;28;20049;-79
2022/08/30 03:31:58;;;;;;;11.57;6.30;;;;;;;15.27;90.53;102191.19;5069403;28;20028;-78
2022/08/30 03:34:25;;;;;;;13.30;6.47;;;;;;;15.32;90.79;102199.75;5088288;28;20032;-78
2022/08/30 03:36:52;;;;;;;8.63;6.47;;;;;;;15.23;91.10;102192.63;5066404;28;20059;-79
2022/08/30 03:39:19;;;;;;;13.02;6.38;;;;;;;15.24;90.41;102206.25;5070021;28;20538;-78
2022/08/30 03:41:45;;;;;;;10.32;6.18;;;;;;;15.24;90.54;102194.34;5052825;28;20127;-78
2022/08/30 03:44:11;;;;;;;8.00;6.50;;;;;;;15.21;91.06;102198.34;5089956;28;20395;-78
2022/08/30 03:46:37;;;;;;;8.63;6.03;;;;;;;15.20;90.74;102193.03;5075010;28;20115;-78
2022/08/30 03:49:02;;;;;;;9.83;6.47;;;;;;;15.17;91.05;102190.66;5071507;28;20115;-79
2022/08/30 03:51:29;;;;;;;6.87;6.17;;;;;;;15.20;90.56;102184.75;5088214;28;20556;-79
2022/08/30 03:53:54;;;;;;;9.50;6.47;;;;;;;15.19;90.87;102196.81;5083982;28;20028;-78
2022/08/30 03:56:21;;;;;;;9.70;7.17;;;;;;;15.24;90.60;102194.34;5088722;28;20128;-78
2022/08/30 03:58:46;;;;;;;10.43;6.70;;;;;;;15.17;90.50;102186.00;5085590;28;20028;-78
2022/08/30 04:01:15;;;;;;;8.10;6.13;;;;;;;15.13;91.43;102194.84;5086298;28;20070;-79
2022/08/30 04:03:40;;;;;;;14.07;7.10;;;;;;;15.13;90.61;102197.59;5067680;28;20016;-79
2022/08/30 04:06:06;;;;;;;14.40;8.13;;;;;;;15.08;91.15;102197.31;5088536;28;20027;-78
2022/08/30 04:08:31;;;;;;;10.73;7.40;;;;;;;15.06;91.49;102189.22;5080628;28;20105;-79
2022/08/30 04:10:57;;;;;;;10.57;7.13;;;;;;;15.06;91.54;102194.75;5068983;28;20036;-78
2022/08/30 04:13:24;;;;;;;12.87;7.30;;;;;;;15.03;91.26;102189.63;5070109;28;20036;-78
2022/08/30 04:15:49;;;;;;;;;;;;;;;15.02;91.18;102189.81;5070625;28;20046;-78
2022/08/30 04:18:15;;;;;;;8.95;6.40;;;;;;;15.00;91.45;102200.22;5087880;28;19916;-79
2022/08/30 04:20:41;;;;;;;9.27;6.30;;;;;;;15.01;91.60;102197.25;5052488;28;20076;-78
2022/08/30 04:23:06;;;;;;;9.40;6.90;;;;;;;15.01;91.67;102199.16;5089041;28;20377;-78
2022/08/30 04:25:33;;;;;;;10.77;7.67;;;;;;;14.93;91.50;102202.88;5068908;28;20062;-78
2022/08/30 04:27:59;;;;;;;;;;;;;;;14.92;91.39;102203.94;5081020;28;20149;-80
2022/08/30 04:30:24;;;;;;;13.52;7.05;;;;;;;14.90;91.39;102199.66;5088129;28;19979;-78
2022/08/30 04:32:49;;;;;;;10.13;7.77;;;;;;;14.88;91.46;102204.53;5086576;28;20397;-76
2022/08/30 04:35:15;;;;;;;8.37;7.33;;;;;;;14.85;92.00;102202.13;5088330;28;20035;-79
2022/08/30 04:37:40;;;;;;;10.40;7.07;;;;;;;14.86;91.90;102207.47;5068355;28;20035;-77
2022/08/30 04:40:07;;;;;;;8.97;6.80;;;;;;;14.81;91.66;102200.78;5088875;28;20170;-77
2022/08/30 04:42:34;;;;;;;10.15;7.18;;;;;;;14.85;91.99;102215.94;5061366;28;20025;-77
2022/08/30 04:45:06;;;;;;;14.98;7.32;;;;;;;14.80;92.13;102215.63;5069180;28;20032;-78
2022/08/30 04:47:32;;;;;;;16.08;8.18;;;;;;;14.81;91.87;102212.69;5087254;28;20356;-79
2022/08/30 04:49:58;;;;;;;9.83;6.87;;;;;;;14.83;91.77;102215.28;5088560;28;20036;-78
2022/08/30 04:52:23;;;;;;;11.07;7.63;;;;;;;14.83;91.94;102215.28;5074709;28;20048;-78
2022/08/30 04:54:55;;;;;;;11.03;8.30;;;;;;;14.89;91.82;102212.59;5079551;28;20044;-78
2022/08/30 04:57:22;;;;;;;19.88;9.30;;;;;;;14.96;91.83;102216.31;5085149;28;20024;-78
2022/08/30 04:59:47;;;;;;;10.20;8.43;;;;;;;15.04;91.35;102223.63;5091247;28;20028;-78
2022/08/30 05:02:12;;;;;;;11.60;7.60;;;;;;;15.03;90.95;102213.59;5080362;28;20388;-78
2022/08/30 05:05:38;;;;;;;17.93;8.07;;;;;;;15.06;90.91;102227.03;5074737;28;20040;-79
2022/08/30 05:07:23;;;;;;;14.10;7.90;;;;;;;15.00;91.51;102227.81;5085221;28;20040;-78
2022/08/30 05:09:48;;;;;;;12.63;8.17;;;;;;;15.00;91.56;102227.81;5079628;28;20087;-80
2022/08/30 05:12:13;;;;;;;11.57;9.50;;;;;;;15.03;91.10;102236.56;5086893;28;20442;-78
2022/08/30 05:14:39;;;;;;;14.17;8.93;;;;;;;15.05;91.31;102239.13;5090931;28;20064;-77
2022/08/30 05:17:04;;;;;;;12.53;8.13;;;;;;;15.04;91.19;102229.13;5090676;28;20426;-78
2022/08/30 05:19:32;;;;;;;9.53;8.63;;;;;;;15.09;90.99;102240.44;5091009;28;20123;-80
2022/08/30 05:21:58;;;;;;;12.38;8.48;;;;;;;15.12;90.72;102242.81;5069992;28;20038;-76
2022/08/30 05:24:24;;;;;;;11.40;8.27;;;;;;;15.13;91.35;102236.25;5084387;28;20036;-76
2022/08/30 05:26:49;;;;;;;13.27;8.48;;;;;;;15.17;90.97;102243.09;5089639;28;20033;-77
2022/08/30 05:29:15;;;;;;;12.77;8.40;;;;;;;15.26;90.51;102241.94;5091074;28;20463;-76
2022/08/30 05:31:43;;;;;;;11.57;7.77;;;;;;;15.30;90.38;102240.50;5071352;28;20024;-76
2022/08/30 05:34:09;;;;;;;13.85;8.18;;;;;;;15.32;90.26;102243.94;5074296;28;20077;-77
2022/08/30 05:36:39;;;;;;;14.15;8.73;;;;;;;15.39;89.72;102244.88;5072180;28;20857;-78
2022/08/30 05:39:06;;;;;;;15.68;9.15;;;;;;;15.36;90.27;102245.28;5089194;28;20109;-77
2022/08/30 05:41:31;;;;;;;12.35;8.73;;;;;;;15.38;90.04;102254.22;5086441;28;20027;-77
2022/08/30 05:43:58;;;;;;;17.73;8.33;;;;;;;15.47;89.65;102244.78;5083797;28;20032;-77
2022/08/30 05:46:25;;;;;;;12.30;8.45;;;;;;;15.51;89.61;102260.75;5081211;28;20108;-78
2022/08/30 05:48:50;;;;;;;17.73;8.55;;;;;;;15.55;89.29;102247.41;5069653;28;20028;-78
2022/08/30 05:51:20;;;;;;;20.80;8.30;;;;;;;15.68;88.90;102244.81;5086403;28;20055;-77
2022/08/30 05:53:46;;;;;;;9.75;8.18;;;;;;;15.63;89.02;102256.44;5077304;28;20430;-77
2022/08/30 05:56:15;;;;;;;15.02;9.50;;;;;;;15.65;89.03;102253.47;5066157;28;20432;-77
2022/08/30 05:58:41;;;;;;;16.00;9.18;;;;;;;15.72;88.51;102257.16;5088962;28;20032;-77
2022/08/30 06:01:37;;;;;;;12.88;8.63;;;;;;;15.83;87.97;102254.75;5085318;28;20047;-77
2022/08/30 06:04:04;;;;;;;14.65;8.80;;;;;;;15.84;88.02;102250.91;5068987;28;20443;-76
2022/08/30 06:06:32;;;;;;;16.80;8.57;;;;;;;15.88;87.40;102251.38;5071785;28;20012;-79
2022/08/30 06:08:57;;;;;;;12.07;9.57;;;;;;;15.95;87.54;102255.91;5087690;28;20034;-78
2022/08/30 06:11:24;;;;;;;14.87;9.03;;;;;;;16.00;87.13;102256.19;5065530;28;20372;-77
2022/08/30 06:13:51;;;;;;;21.83;8.93;;;;;;;15.98;87.01;102255.53;5069442;28;20024;-78
2022/08/30 06:16:19;;;;;;;12.77;9.55;;;;;;;15.99;87.02;102253.59;5069626;28;20062;-78
2022/08/30 06:18:45;;;;;;;9.70;8.32;;;;;;;16.12;86.60;102249.06;5090498;28;20032;-78
2022/08/30 06:21:19;;;;;;;9.73;8.73;;;;;;;16.01;86.66;102262.56;5086145;28;20386;-77
2022/08/30 06:23:44;;;;;;;11.43;8.50;;;;;;;16.09;86.67;102259.66;5087107;28;20336;-78
2022/08/30 06:26:10;;;;;;;15.90;9.30;;;;;;;16.16;86.78;102260.59;5067686;28;20142;-79
2022/08/30 06:28:35;;;;;;;16.13;9.00;;;;;;;16.20;86.35;102262.75;5096795;28;21275;-79
2022/08/30 06:31:05;;;;;;;10.63;9.10;;;;;;;16.20;86.16;102259.97;5084250;28;20073;-79
2022/08/30 06:33:30;;;;;;;12.27;9.50;;;;;;;16.29;86.17;102257.94;5086428;28;20034;-79
2022/08/30 06:36:01;;;;;;;12.33;8.27;;;;;;;16.41;85.34;102259.13;5068540;28;20439;-79
2022/08/30 06:38:26;;;;;;;12.05;8.35;;;;;;;16.50;84.94;102249.63;5087219;28;20093;-79
2022/08/30 06:40:52;;;;;;;14.37;8.83;;;;;;;16.62;84.45;102251.63;5067886;28;20024;-80
2022/08/30 06:43:17;;;;;;;9.50;8.57;;;;;;;16.60;84.25;102242.66;5067068;28;20115;-79
2022/08/30 06:45:42;;;;;;;14.87;8.77;;;;;;;16.62;84.58;102245.22;5085977;28;20428;-79
2022/08/30 06:48:08;;;;;;;10.13;7.63;;;;;;;16.66;84.14;102235.47;5087443;28;20447;-80
2022/08/30 06:50:33;;;;;;;11.00;8.47;;;;;;;16.80;83.86;102248.34;5083755;28;20031;-80
2022/08/30 06:53:04;;;;;;;15.40;8.87;;;;;;;16.91;83.18;102253.31;5082462;28;20059;-80
2022/08/30 06:55:32;;;;;;;15.18;7.78;;;;;;;16.92;82.42;102243.94;5080890;28;20028;-79
2022/08/30 06:57:58;;;;;;;11.73;7.57;;;;;;;16.87;82.15;102243.69;5082702;28;20032;-80
2022/08/30 07:00:23;;;;;;;11.60;8.35;;;;;;;16.94;82.19;102245.44;5088449;28;20112;-80
2022/08/30 07:02:48;;;;;;;12.50;6.90;;;;;;;17.06;82.26;102245.69;5069840;28;20036;-79
2022/08/30 07:05:15;;;;;;;14.03;7.37;;;;;;;17.14;81.85;102246.38;5088904;28;20131;-80
2022/08/30 07:07:40;;;;;;;8.60;7.10;;;;;;;17.74;80.57;102237.25;5084695;28;20487;-80
2022/08/30 07:10:07;;;;;;;10.97;7.70;;;;;;;18.58;77.00;102248.41;5069392;28;20085;-79
2022/08/30 07:12:32;;;;;;;;;;;;;;;19.02;74.63;102247.66;5088763;28;20515;-79
2022/08/30 07:14:58;;;;;;;11.88;6.03;;;;;;;19.29;73.17;102246.53;5088389;28;19955;-79
2022/08/30 07:20:08;;;;;;;7.60;6.07;;;;;;;19.65;71.11;102246.78;5097918;28;20404;-79
2022/08/30 07:22:33;;;;;;;5.93;5.38;;;;;;;19.30;71.95;102254.66;5070172;28;20027;-79
2022/08/30 07:24:58;;;;;;;7.60;5.40;;;;;;;19.51;71.78;102256.25;5062767;28;20032;-80
2022/08/30 07:27:24;;;;;;;15.47;5.90;;;;;;;19.41;71.05;102256.75;5082244;28;20036;-79
2022/08/30 07:29:49;;;;;;;7.20;5.27;;;;;;;19.25;71.24;102256.38;5067696;28;20442;-79
2022/08/30 07:32:15;;;;;;;7.67;5.57;;;;;;;19.60;70.81;102263.28;5068518;28;20463;-79
2022/08/30 07:34:40;;;;;;;10.47;5.40;;;;;;;19.64;70.91;102261.78;5068625;28;20365;-79
2022/08/30 07:37:06;;;;;;;10.00;5.80;;;;;;;19.55;70.12;102263.09;5079569;28;20280;-78
2022/08/30 07:39:32;;;;;;;5.78;4.78;;;;;;;19.98;70.02;102259.41;5064198;28;20024;-79
2022/08/30 07:41:57;;;;;;;6.63;4.80;;;;;;;19.65;69.44;102263.47;5084727;28;20036;-78
2022/08/30 07:44:22;;;;;;;4.80;4.40;;;;;;;19.49;69.49;102270.41;5085255;28;20107;-78
2022/08/30 07:46:48;;;;;;;6.67;4.90;;;;;;;19.14;70.01;102260.66;5078520;28;20103;-79
2022/08/30 07:49:13;;;;;;;7.30;5.03;;;;;;;18.87;71.63;102264.59;5083537;28;20032;-77
2022/08/30 07:51:39;;;;;;;8.73;5.27;;;;;;;18.98;71.52;102263.91;5081279;28;20070;-79
2022/08/30 07:54:05;;;;;;;8.40;4.80;;;;;;;19.00;71.76;102261.78;5068935;28;20066;-78
2022/08/30 07:56:30;;;;;;;6.47;4.78;;;;;;;19.04;71.15;102268.59;5068479;28;20459;-78
2022/08/30 07:58:55;;;;;;;11.90;4.50;;;;;;;19.05;71.52;102272.25;5085502;28;20058;-78
2022/08/30 08:01:22;;;;;;;8.87;6.13;;;;;;;19.29;71.43;102271.53;5084550;28;20075;-78
2022/08/30 08:03:49;;;;;;;6.15;4.47;;;;;;;19.48;69.39;102278.97;5085570;28;20031;-78
2022/08/30 08:06:16;;;;;;;9.32;4.80;;;;;;;19.39;68.88;102285.81;5086063;28;20479;-78
2022/08/30 08:08:42;;;;;;;9.07;5.22;;;;;;;19.58;69.05;102279.34;5084873;28;20031;-79
2022/08/30 08:11:20;;;;;;;11.25;4.45;;;;;;;19.95;68.66;102276.53;5064110;28;20388;-78
2022/08/30 08:13:46;;;;;;;8.43;4.65;;;;;;;20.18;68.23;102274.06;5082399;28;20039;-78
2022/08/30 08:16:12;;;;;;;5.70;4.28;;;;;;;20.15;67.19;102271.72;5084514;28;20102;-79
2022/08/30 08:18:37;;;;;;;8.67;4.30;;;;;;;20.00;67.42;102267.53;5085486;28;20054;-78
2022/08/30 08:21:04;;;;;;;5.50;4.10;;;;;;;19.88;67.98;102264.63;5084749;28;20479;-78
2022/08/30 08:23:29;;;;;;;5.88;4.80;;;;;;;19.97;67.28;102270.75;5067817;28;20024;-78
2022/08/30 08:25:55;;;;;;;9.17;4.30;;;;;;;20.07;66.89;102271.16;5069694;28;20030;-79
2022/08/30 08:28:21;;;;;;;10.87;4.17;;;;;;;20.23;67.05;102281.75;5067459;28;20107;-79
2022/08/30 08:30:48;;;;;;;9.50;4.28;;;;;;;19.92;64.61;102265.88;5067876;28;20024;-79
2022/08/30 08:33:14;;;;;;;6.60;4.30;;;;;;;19.89;64.48;102274.66;5084557;28;20486;-79
2022/08/30 08:35:40;;;;;;;6.05;3.97;;;;;;;20.09;64.42;102278.22;5086048;28;20082;-78
2022/08/30 08:38:05;;;;;;;5.60;3.30;;;;;;;20.27;63.50;102280.22;5085895;28;20028;-78
2022/08/30 08:40:52;;;;;;;4.33;3.43;;;;;;;20.28;64.21;102270.78;5066230;28;20030;-79
2022/08/30 08:43:21;;;;;;;5.93;3.30;;;;;;;20.43;62.86;102277.72;5067303;28;20031;-79
2022/08/30 08:45:59;;;;;;;4.78;3.05;;;;;;;20.45;62.26;102274.72;5068084;28;20288;-78
2022/08/30 08:48:27;;;;;;;8.43;3.17;;;;;;;20.65;63.01;102269.81;5066419;28;20120;-79
2022/08/30 08:53:39;;;;;;;6.32;2.80;;;;;;;20.66;60.83;102269.56;5090566;28;20039;-77
2022/08/30 08:56:14;;;;;;;4.50;2.40;;;;;;;20.56;61.72;102262.81;5070872;28;20372;-79
2022/08/30 08:58:51;;;;;;;4.97;2.88;;;;;;;20.82;61.58;102274.56;5072555;28;20679;-80
2022/08/30 09:01:18;;;;;;;;;;;;;;;20.83;60.71;102267.91;5067041;28;20083;-79
2022/08/30 09:03:45;;;;;;;4.40;2.90;;;;;;;20.91;60.63;102272.38;5090736;28;19916;-81
2022/08/30 09:06:27;;;;;;;5.75;2.42;;;;;;;21.11;59.56;102273.84;5085494;28;20032;-77
2022/08/30 09:08:52;;;;;;;5.40;2.50;;;;;;;21.28;60.21;102257.38;5084589;28;20024;-78
2022/08/30 09:11:27;;;;;;;5.23;2.30;;;;;;;21.50;58.96;102262.22;5063189;28;20036;-77
2022/08/30 09:13:53;;;;;;;3.60;2.25;;;;;;;21.72;58.98;102277.38;5083506;28;20834;-78
2022/08/30 09:17:03;;;;;;;5.80;2.88;;;;;;;21.87;58.41;102266.66;5090749;28;20106;-79
2022/08/30 09:19:32;;;;;;;4.13;2.00;;;;;;;21.95;56.71;102273.84;5096286;28;20054;-79
2022/08/30 09:22:21;;;;;;;5.32;2.38;;;;;;;21.97;56.54;102280.03;5065217;28;20111;-77
2022/08/30 09:24:51;;;;;;;9.00;3.00;;;;;;;21.85;57.27;102273.56;5082699;28;20111;-75
2022/08/30 09:27:43;;;;;;;4.53;2.80;;;;;;;21.74;57.66;102275.22;5088824;28;20107;-77
2022/08/30 09:30:24;;;;;;;5.22;2.28;;;;;;;22.00;56.67;102279.56;5069795;28;20081;-76
2022/08/30 09:33:06;;;;;;;2.78;1.85;;;;;;;22.27;56.67;102276.13;5090251;28;20059;-77
2022/08/30 09:35:45;;;;;;;7.15;2.60;;;;;;;22.15;56.26;102277.19;5067477;28;20025;-78
2022/08/30 09:38:19;;;;;;;4.28;2.13;;;;;;;22.23;57.02;102280.50;5067425;28;20024;-78
2022/08/30 09:40:54;;;;;;;8.73;2.00;;;;;;;22.48;55.16;102284.00;5069703;28;20050;-76
2022/08/30 09:43:26;;;;;;;6.93;2.55;;;;;;;22.34;55.78;102284.38;5090146;28;20204;-78
2022/08/30 09:46:01;;;;;;;7.25;2.10;;;;;;;22.60;54.83;102286.78;5078185;28;20036;-76
2022/08/30 09:48:37;;;;;;;4.90;1.83;;;;;;;22.65;54.77;102287.78;5089203;28;20066;-78
2022/08/30 09:51:14;;;;;;;7.20;2.38;;;;;;;22.69;54.76;102279.75;5072233;28;20110;-75
2022/08/30 09:53:58;;;;;;;3.53;2.15;;;;;;;22.56;54.56;102280.81;5088608;28;20039;-77
2022/08/30 09:56:52;;;;;;;3.10;2.03;;;;;;;22.53;54.49;102286.06;5090221;28;20145;-76
2022/08/30 09:59:36;;;;;;;2.45;1.85;;;;;;;22.48;55.17;102280.34;5089708;28;20028;-76
2022/08/30 10:02:26;;;;;;;4.22;2.10;;;;;;;22.52;54.22;102284.34;5070010;28;20031;-76
2022/08/30 10:05:02;;;;;;;2.67;1.60;;;;;;;22.69;54.62;102286.19;5071251;28;20067;-76
2022/08/30 10:07:41;;;;;;;2.45;2.05;;;;;;;22.82;53.85;102280.38;5086264;28;20039;-78
2022/08/30 10:10:35;;;;;;;6.03;2.30;;;;;;;22.98;53.57;102279.63;5071988;28;20024;-77
2022/08/30 10:13:19;;;;;;;3.08;1.95;;;;;;;23.05;51.20;102273.91;5042749;28;20048;-78
2022/08/30 10:15:53;;;;;;;5.03;2.20;;;;;;;23.03;50.77;102276.94;5088251;28;20035;-79
2022/08/30 10:18:24;;;;;;;6.13;2.15;;;;;;;23.38;51.43;102269.38;5073625;28;20394;-77
2022/08/30 10:21:13;;;;;;;2.08;1.60;;;;;;;23.59;49.98;102270.66;5078049;28;20042;-78
2022/08/30 10:23:49;;;;;;;3.65;1.40;;;;;;;23.58;50.14;102268.97;5067994;28;20028;-78
2022/08/30 10:26:38;;;;;;;4.20;1.92;;;;;;;23.25;49.19;102275.25;5071163;28;20483;-77
2022/08/30 10:29:27;;;;;;;3.42;1.70;;;;;;;23.39;49.73;102284.22;5088823;28;20498;-77
2022/08/30 10:32:01;;;;;;;5.40;2.20;;;;;;;23.71;48.08;102285.47;5088086;28;20119;-79
2022/08/30 10:34:59;;;;;;;4.43;1.90;;;;;;;23.74;47.82;102293.38;5088392;28;20055;-79
2022/08/30 10:37:28;;;;;;;2.17;1.70;;;;;;;23.60;47.39;102284.41;5061041;28;20056;-79
2022/08/30 10:39:59;;;;;;;4.60;1.73;;;;;;;23.39;48.05;102284.22;5087077;28;20032;-77
2022/08/30 10:42:35;;;;;;;3.95;2.30;;;;;;;23.58;48.61;102275.41;5069036;28;20032;-79
2022/08/30 10:45:00;;;;;;;6.82;1.90;;;;;;;;;;5088770;28;20366;-79
2022/08/30 10:47:42;;;;;;;3.90;2.10;;;;;;;23.70;47.60;102280.97;5088617;28;20028;-79
2022/08/30 10:50:17;;;;;;;3.28;1.80;;;;;;;23.49;47.30;102271.31;5087267;28;20055;-79
2022/08/30 10:53:16;;;;;;;8.82;2.10;;;;;;;23.66;47.60;102276.97;5070483;28;20027;-79
2022/08/30 10:56:23;;;;;;;12.82;1.70;;;;;;;24.01;46.22;102264.53;5064667;28;20623;-80
2022/08/30 10:58:48;;;;;;;2.17;1.75;;;;;;;23.71;46.77;102263.94;5065565;28;20601;-79
2022/08/30 11:01:17;;;;;;;6.93;1.90;;;;;;;23.67;46.20;102273.91;5070628;28;20051;-80
2022/08/30 11:04:01;;;;;;;6.40;1.58;;;;;;;23.50;46.86;102266.56;5068977;28;20028;-79
2022/08/30 11:06:45;;;;;;;6.07;1.48;;;;;;;23.72;46.66;102264.75;5079559;28;20454;-79
2022/08/30 11:09:25;;;;;;;1.85;1.42;;;;;;;23.77;45.63;102270.47;5087780;28;20123;-79
2022/08/30 11:12:15;;;;;;;6.40;1.77;;;;;;;23.91;45.86;102264.34;5067815;28;20067;-79
2022/08/30 11:14:43;;;;;;;5.18;1.50;;;;;;;24.50;43.99;102258.13;5067914;28;20035;-80
2022/08/30 11:17:24;;;;;;;9.90;1.63;;;;;;;24.79;44.02;102259.78;5088692;28;20062;-79
2022/08/30 11:19:52;;;;;;;8.82;1.30;;;;;;;24.62;42.83;102266.50;5069822;28;20031;-80
2022/08/30 11:22:31;;;;;;;2.75;1.65;;;;;;;24.84;43.23;102259.00;5088419;28;20036;-80
2022/08/30 11:25:08;;;;;;;4.18;2.03;;;;;;;24.68;42.36;102271.94;5068226;28;20122;-80
2022/08/30 11:27:47;;;;;;;5.68;1.98;;;;;;;24.79;41.41;102267.34;5088135;28;20034;-78
2022/08/30 11:30:24;;;;;;;3.70;1.65;;;;;;;25.02;42.52;102269.94;5058538;28;20028;-77
2022/08/30 11:33:06;;;;;;;1.48;1.38;;;;;;;25.01;41.74;102254.22;5088504;28;20032;-79
2022/08/30 11:35:51;;;;;;;4.53;1.60;;;;;;;25.11;41.68;102257.16;5067387;28;20028;-78
2022/08/30 11:38:25;;;;;;;3.17;1.40;;;;;;;25.53;41.11;102258.31;5087497;28;20524;-77
2022/08/30 11:41:06;;;;;;;1.95;1.50;;;;;;;25.08;40.97;102254.88;5087173;28;20132;-78